Time;durP1;ratioP1;P1;durP2;ratioP2;P2;SDS_P1;SDS_P2;PMS_P1;PMS_P2;Temp;Humidity;BMP_temperature;BMP_pressure;BME280_temperature;BME280_humidity;BME280_pressure;Samples;Min_cycle;Max_cycle;Signal;HPM_P1;HPM_P2
2024/03/09 00:00:17;;;;;;;20.92;15.68;;;;;;;10.61;89.40;99981.44;5016167;28;20050;-81
2024/03/09 00:03:22;;;;;;;22.27;16.13;;;;;;;10.68;89.41;99983.41;5016054;28;20049;-80
2024/03/09 00:06:27;;;;;;;25.45;16.25;;;;;;;10.86;88.75;99976.28;5003593;28;20045;-79
2024/03/09 00:09:34;;;;;;;23.95;16.23;;;;;;;11.05;88.13;99970.00;4992614;28;20057;-81
2024/03/09 00:12:39;;;;;;;22.63;16.08;;;;;;;11.00;88.36;99965.09;5003131;28;20046;-79
2024/03/09 00:15:45;;;;;;;21.70;16.17;;;;;;;10.97;88.25;99970.75;5015879;28;20060;-80
2024/03/09 00:18:49;;;;;;;22.10;15.40;;;;;;;11.05;88.04;99976.22;5003486;28;20125;-80
2024/03/09 00:21:55;;;;;;;26.27;16.45;;;;;;;10.96;87.67;99965.53;5015865;28;20484;-81
2024/03/09 00:24:59;;;;;;;22.63;15.70;;;;;;;11.17;87.00;99959.91;5003607;28;20068;-80
2024/03/09 00:28:05;;;;;;;24.33;17.10;;;;;;;10.95;88.45;99966.50;5015328;28;20053;-80
2024/03/09 00:31:09;;;;;;;21.52;15.57;;;;;;;11.07;88.01;99962.66;5015376;28;20114;-80
2024/03/09 00:34:14;;;;;;;21.55;15.60;;;;;;;10.80;88.20;99963.44;5024342;28;20404;-80
2024/03/09 00:37:19;;;;;;;23.38;15.60;;;;;;;10.76;89.15;99959.38;5034816;28;20045;-80
2024/03/09 00:40:30;;;;;;;24.85;16.80;;;;;;;11.09;87.79;99966.88;5023110;28;20060;-81
2024/03/09 00:43:43;;;;;;;25.27;16.10;;;;;;;10.85;87.65;99954.94;5034103;28;20396;-80
2024/03/09 00:46:49;;;;;;;23.90;16.38;;;;;;;11.07;87.10;99955.44;5022476;28;20042;-81
2024/03/09 00:49:54;;;;;;;24.83;16.35;;;;;;;11.16;86.68;99956.38;5035102;28;20048;-82
2024/03/09 00:52:58;;;;;;;19.67;14.45;;;;;;;11.22;87.05;99945.06;5022922;28;20049;-81
2024/03/09 00:56:05;;;;;;;21.65;15.55;;;;;;;11.39;86.10;99948.78;5034701;28;20473;-79
2024/03/09 00:59:10;;;;;;;21.77;16.55;;;;;;;11.14;86.60;99942.25;5022853;28;20053;-81
2024/03/09 01:02:18;;;;;;;24.05;16.90;;;;;;;11.16;86.69;99940.25;5033768;28;20052;-79
2024/03/09 01:05:23;;;;;;;24.52;16.48;;;;;;;11.29;86.16;99934.53;5034887;28;20052;-79
2024/03/09 01:08:27;;;;;;;24.30;16.38;;;;;;;11.30;86.32;99930.88;5034825;28;20392;-79
2024/03/09 01:11:31;;;;;;;22.50;16.02;;;;;;;11.04;87.62;99934.25;5025950;28;20046;-80
2024/03/09 01:14:39;;;;;;;22.52;17.42;;;;;;;11.18;87.40;99938.28;5014585;28;20053;-81
2024/03/09 01:17:43;;;;;;;24.15;16.55;;;;;;;11.19;87.18;99933.75;5013752;28;20071;-80
2024/03/09 01:20:48;;;;;;;24.48;16.23;;;;;;;11.06;88.16;99931.41;5015479;28;20492;-79
2024/03/09 01:23:52;;;;;;;26.42;17.88;;;;;;;11.11;87.01;99921.06;5014106;28;20381;-79
2024/03/09 01:26:57;;;;;;;28.35;17.60;;;;;;;11.05;87.67;99906.41;5002275;28;20041;-80
2024/03/09 01:30:02;;;;;;;24.00;18.08;;;;;;;11.09;88.18;99893.50;5014791;28;20049;-79
2024/03/09 01:33:09;;;;;;;28.67;18.00;;;;;;;11.13;87.58;99893.06;5014451;28;20050;-80
2024/03/09 01:36:14;;;;;;;25.42;17.42;;;;;;;11.11;87.26;99892.34;5014328;28;20401;-79
2024/03/09 01:39:19;;;;;;;24.20;17.08;;;;;;;11.17;87.12;99898.97;5014542;28;20045;-78
2024/03/09 01:42:23;;;;;;;21.83;16.33;;;;;;;11.15;87.09;99900.13;5014437;28;20057;-79
2024/03/09 01:45:28;;;;;;;24.38;16.88;;;;;;;11.20;87.14;99897.84;5014543;28;20068;-79
2024/03/09 01:48:32;;;;;;;23.40;16.08;;;;;;;11.21;86.66;99888.78;5014418;28;20056;-79
2024/03/09 01:51:43;;;;;;;23.85;16.88;;;;;;;10.99;87.76;99885.50;5014432;28;20045;-81
2024/03/09 01:54:48;;;;;;;24.65;16.98;;;;;;;11.07;88.25;99892.81;5014338;28;20048;-79
2024/03/09 01:57:53;;;;;;;24.17;17.13;;;;;;;11.22;87.20;99888.63;5013942;28;20042;-81
2024/03/09 02:01:04;;;;;;;25.15;17.33;;;;;;;11.10;87.47;99888.00;5014392;28;20037;-79
2024/03/09 02:04:09;;;;;;;22.85;15.75;;;;;;;11.17;87.22;99882.00;5014402;28;20049;-81
2024/03/09 02:07:16;;;;;;;27.02;16.83;;;;;;;11.29;87.27;99876.28;5013394;28;20092;-81
2024/03/09 02:10:21;;;;;;;25.00;16.98;;;;;;;11.35;86.94;99881.06;5014267;28;20050;-80
2024/03/09 02:13:26;;;;;;;20.80;15.52;;;;;;;11.40;86.94;99886.84;4994551;28;20046;-81
2024/03/09 02:16:31;;;;;;;23.60;16.95;;;;;;;11.13;87.70;99877.94;4994494;28;20058;-81
2024/03/09 02:19:36;;;;;;;25.63;17.23;;;;;;;11.23;87.29;99876.06;4993886;28;20057;-81
2024/03/09 02:22:41;;;;;;;22.92;14.93;;;;;;;11.27;87.44;99880.97;4993281;28;20049;-81
2024/03/09 02:25:46;;;;;;;22.63;16.30;;;;;;;11.13;88.28;99879.63;5005021;28;20047;-80
2024/03/09 02:28:54;;;;;;;24.23;17.73;;;;;;;11.10;88.27;99877.25;5004848;28;20478;-81
2024/03/09 02:31:59;;;;;;;24.67;18.25;;;;;;;11.19;88.22;99858.53;4994455;28;20057;-80
2024/03/09 02:35:03;;;;;;;23.90;16.00;;;;;;;11.38;86.83;99856.56;4994299;28;20042;-81
2024/03/09 02:38:09;;;;;;;22.83;17.23;;;;;;;11.49;86.26;99850.97;5008008;28;20042;-82
2024/03/09 02:41:13;;;;;;;26.50;16.20;;;;;;;11.45;86.67;99848.75;5008686;28;20053;-81
2024/03/09 02:44:18;;;;;;;24.25;17.00;;;;;;;11.45;86.36;99843.38;4998126;28;20485;-81
2024/03/09 02:47:22;;;;;;;24.73;18.17;;;;;;;11.30;86.76;99861.88;4998166;28;20045;-79
2024/03/09 02:50:29;;;;;;;23.85;17.27;;;;;;;11.34;87.39;99874.00;4997215;28;20038;-81
2024/03/09 02:53:33;;;;;;;24.42;17.15;;;;;;;11.40;87.20;99864.50;4996800;28;20057;-81
2024/03/09 02:56:39;;;;;;;22.98;16.35;;;;;;;11.42;87.11;99859.81;4997864;28;20508;-81
2024/03/09 02:59:46;;;;;;;25.13;17.23;;;;;;;11.17;87.81;99849.78;4996939;28;20110;-81
2024/03/09 03:06:18;;;;;;;27.20;17.88;;;;;;;11.43;87.88;99858.81;4996709;28;20390;-81
2024/03/09 03:09:23;;;;;;;24.42;16.08;;;;;;;11.56;86.38;99857.44;4996601;28;20030;-81
2024/03/09 03:12:27;;;;;;;24.63;17.98;;;;;;;11.50;87.15;99860.75;5012522;28;20064;-80
2024/03/09 03:15:32;;;;;;;23.52;17.17;;;;;;;11.70;86.40;99856.09;5017148;28;20069;-81
2024/03/09 03:18:37;;;;;;;24.55;17.27;;;;;;;11.77;86.30;99857.16;5016827;28;20481;-79
2024/03/09 03:21:41;;;;;;;26.58;18.70;;;;;;;12.00;85.33;99852.16;5017123;28;20057;-80
2024/03/09 03:24:45;;;;;;;24.98;16.92;;;;;;;12.02;84.96;99853.69;5017017;28;20045;-81
2024/03/09 03:27:51;;;;;;;27.17;18.38;;;;;;;11.86;85.10;99847.31;5016918;28;20391;-81
2024/03/09 03:30:56;;;;;;;26.02;17.25;;;;;;;11.69;86.20;99851.72;5016907;28;20056;-78
2024/03/09 03:34:01;;;;;;;27.88;18.85;;;;;;;11.69;86.32;99854.41;5016783;28;20052;-78
2024/03/09 03:37:07;;;;;;;31.33;19.27;;;;;;;11.62;86.99;99862.22;5016693;28;20492;-81
2024/03/09 03:40:14;;;;;;;30.52;19.48;;;;;;;11.75;86.58;99867.25;5004956;28;20053;-79
2024/03/09 03:43:18;;;;;;;27.58;19.27;;;;;;;11.63;86.59;99860.34;5004631;28;20052;-80
2024/03/09 03:46:23;;;;;;;31.20;20.77;;;;;;;11.56;87.22;99851.19;5016599;28;20049;-80
2024/03/09 03:49:28;;;;;;;32.53;21.50;;;;;;;11.47;87.62;99860.19;5003712;28;20512;-81
2024/03/09 03:52:33;;;;;;;33.88;21.02;;;;;;;11.40;87.92;99865.34;5016492;28;20070;-78
2024/03/09 03:55:37;;;;;;;30.20;20.40;;;;;;;11.45;88.42;99867.56;5016348;28;20045;-82
2024/03/09 03:58:41;;;;;;;31.30;20.85;;;;;;;11.34;88.54;99871.31;4992103;28;20052;-79
2024/03/09 04:01:46;;;;;;;28.90;20.67;;;;;;;11.30;88.70;99877.13;5015793;28;20049;-79
2024/03/09 04:04:50;;;;;;;35.08;21.85;;;;;;;11.29;89.32;99876.28;5016202;28;20043;-80
2024/03/09 04:07:56;;;;;;;29.67;20.92;;;;;;;11.45;88.70;99864.88;5014788;28;20489;-80
2024/03/09 04:11:02;;;;;;;32.63;20.95;;;;;;;11.46;89.07;99861.19;5002787;28;20508;-79
2024/03/09 04:14:07;;;;;;;35.03;21.83;;;;;;;11.63;88.06;99863.88;5002843;28;20041;-79
2024/03/09 04:17:11;;;;;;;31.58;20.50;;;;;;;11.66;87.97;99866.28;5014876;28;20053;-79
2024/03/09 04:20:15;;;;;;;34.85;22.17;;;;;;;11.55;88.23;99863.78;5014874;28;20041;-80
2024/03/09 04:23:21;;;;;;;37.53;22.38;;;;;;;11.74;88.04;99865.53;5015783;28;20038;-79
2024/03/09 04:26:26;;;;;;;36.97;21.58;;;;;;;11.88;87.07;99866.81;5015979;28;20049;-79
2024/03/09 04:29:30;;;;;;;34.10;21.20;;;;;;;11.83;87.16;99859.22;5003708;28;20048;-78
2024/03/09 04:32:35;;;;;;;32.80;20.55;;;;;;;11.67;87.59;99864.44;5015710;28;20390;-78
2024/03/09 04:35:41;;;;;;;30.10;19.50;;;;;;;11.67;87.69;99864.44;5015622;28;20053;-78
2024/03/09 04:38:45;;;;;;;31.90;21.17;;;;;;;11.76;87.49;99860.84;5015609;28;20517;-78
2024/03/09 04:41:51;;;;;;;32.97;21.77;;;;;;;11.50;88.89;99862.59;5015644;28;20050;-80
2024/03/09 04:44:56;;;;;;;30.95;19.88;;;;;;;11.54;88.95;99853.19;5015538;28;20430;-77
2024/03/09 04:48:03;;;;;;;31.95;20.55;;;;;;;11.78;88.04;99849.94;5015504;28;20077;-80
2024/03/09 04:51:08;;;;;;;27.30;19.15;;;;;;;11.93;86.66;99848.38;5015500;28;20060;-78
2024/03/09 04:54:13;;;;;;;30.35;18.02;;;;;;;11.62;87.82;99850.59;5015359;28;20057;-79
2024/03/09 04:57:24;;;;;;;27.35;18.20;;;;;;;11.44;88.40;99852.44;5002920;28;20470;-81
2024/03/09 05:00:29;;;;;;;27.75;18.08;;;;;;;11.38;89.12;99847.69;5015223;28;20174;-80
2024/03/09 05:03:34;;;;;;;27.15;17.90;;;;;;;11.75;87.58;99845.72;5015436;28;20046;-79
2024/03/09 05:06:41;;;;;;;30.30;19.35;;;;;;;11.68;87.68;99832.03;5014832;28;20049;-78
2024/03/09 05:09:45;;;;;;;29.52;17.65;;;;;;;11.47;88.37;99831.47;5014981;28;20069;-78
2024/03/09 05:12:54;;;;;;;27.50;17.23;;;;;;;11.58;88.05;99839.28;5014262;28;20050;-79
2024/03/09 05:15:58;;;;;;;27.83;18.20;;;;;;;11.61;88.02;99832.78;5002756;28;20417;-80
2024/03/09 05:19:05;;;;;;;31.25;19.17;;;;;;;11.84;86.94;99831.34;5014826;28;20057;-75
2024/03/09 05:22:10;;;;;;;27.67;17.58;;;;;;;12.06;86.42;99830.00;5014842;28;20045;-78
2024/03/09 05:25:14;;;;;;;28.77;17.27;;;;;;;11.73;86.84;99831.56;5014704;28;20045;-81
2024/03/09 05:28:20;;;;;;;25.65;16.75;;;;;;;11.76;87.32;99839.31;5014456;28;20140;-78
2024/03/09 05:31:26;;;;;;;29.92;18.95;;;;;;;11.74;87.17;99846.72;5014683;28;20038;-78
2024/03/09 05:34:34;;;;;;;26.95;16.95;;;;;;;11.76;87.48;99847.41;5014574;28;20381;-76
2024/03/09 05:37:39;;;;;;;29.58;17.95;;;;;;;11.82;87.53;99836.03;5014530;28;20050;-79
2024/03/09 05:40:43;;;;;;;31.33;18.88;;;;;;;11.80;87.72;99832.63;5002456;28;20037;-79
2024/03/09 05:43:48;;;;;;;34.83;19.80;;;;;;;11.82;88.09;99827.97;5002267;28;20050;-80
2024/03/09 05:46:53;;;;;;;32.75;19.65;;;;;;;11.72;88.16;99841.50;5014681;28;20049;-78
2024/03/09 05:49:57;;;;;;;35.42;19.73;;;;;;;11.73;88.44;99831.56;5014428;28;20073;-80
2024/03/09 05:53:04;;;;;;;34.08;19.77;;;;;;;11.73;88.16;99843.16;5014457;28;20056;-78
2024/03/09 05:56:11;;;;;;;35.20;20.77;;;;;;;11.77;88.55;99854.47;5014291;28;20056;-81
2024/03/09 05:59:16;;;;;;;34.40;20.13;;;;;;;11.92;88.33;99861.00;5014109;28;20053;-78
2024/03/09 06:02:21;;;;;;;32.83;18.77;;;;;;;11.82;87.89;99857.53;5014013;28;20057;-79
2024/03/09 06:05:28;;;;;;;31.67;18.30;;;;;;;12.15;86.62;99864.03;5014294;28;20042;-81
2024/03/09 06:08:34;;;;;;;31.50;20.10;;;;;;;11.97;87.45;99861.38;5014240;28;20050;-77
2024/03/09 06:11:40;;;;;;;36.60;20.52;;;;;;;11.87;88.08;99866.00;5016031;28;20052;-78
2024/03/09 06:14:44;;;;;;;36.63;19.67;;;;;;;11.79;88.78;99884.75;5020787;28;20049;-80
2024/03/09 06:18:00;;;;;;;34.50;19.25;;;;;;;11.72;88.46;99884.53;5020729;28;20057;-81
2024/03/09 06:21:05;;;;;;;35.85;19.15;;;;;;;11.69;89.17;99894.72;5020419;28;20046;-79
2024/03/09 06:24:10;;;;;;;38.05;22.05;;;;;;;11.64;89.14;99887.09;5008287;28;20038;-80
2024/03/09 06:27:15;;;;;;;37.08;21.45;;;;;;;11.70;89.50;99891.03;5020574;28;20488;-79
2024/03/09 06:30:22;;;;;;;35.63;20.42;;;;;;;11.80;89.19;99885.59;5020565;28;20073;-80
2024/03/09 06:33:28;;;;;;;41.03;20.48;;;;;;;11.93;88.57;99888.72;5020551;28;20049;-80
2024/03/09 06:36:32;;;;;;;38.28;21.08;;;;;;;11.65;89.37;99887.94;5020437;28;20056;-80
2024/03/09 06:39:38;;;;;;;37.10;20.65;;;;;;;12.02;88.51;99877.06;5020616;28;20065;-79
2024/03/09 06:42:46;;;;;;;36.22;21.05;;;;;;;12.04;87.89;99877.72;5021437;28;20038;-78
2024/03/09 06:45:51;;;;;;;34.40;18.98;;;;;;;12.12;87.59;99875.94;5008534;28;20060;-81
2024/03/09 06:48:57;;;;;;;36.38;20.58;;;;;;;12.22;87.27;99890.16;5020753;28;20041;-80
2024/03/09 06:52:02;;;;;;;39.97;20.90;;;;;;;12.05;87.60;99898.22;5008533;28;20050;-82
2024/03/09 06:55:08;;;;;;;40.40;20.83;;;;;;;12.06;88.46;99902.63;5020529;28;20064;-79
2024/03/09 06:58:12;;;;;;;34.35;19.90;;;;;;;12.21;87.85;99901.94;5008279;28;20049;-79
2024/03/09 07:01:30;;;;;;;36.35;21.17;;;;;;;12.19;87.66;99906.63;5008017;28;20048;-79
2024/03/09 07:04:35;;;;;;;41.35;21.40;;;;;;;12.13;87.62;99909.91;5008202;28;20053;-79
2024/03/09 07:07:42;;;;;;;42.00;22.88;;;;;;;11.85;88.58;99919.06;5007785;28;20516;-77
2024/03/09 07:10:47;;;;;;;39.75;22.60;;;;;;;11.85;87.73;99907.50;5020249;28;20046;-78
2024/03/09 07:13:55;;;;;;;32.92;20.27;;;;;;;11.94;88.12;99903.88;5000554;28;20149;-78
2024/03/09 07:17:01;;;;;;;35.83;20.80;;;;;;;11.90;88.30;99902.50;4999696;28;20057;-78
2024/03/09 07:20:12;;;;;;;36.38;21.00;;;;;;;11.95;88.52;99901.00;5000467;28;20065;-80
2024/03/09 07:23:16;;;;;;;34.75;21.10;;;;;;;12.05;88.38;99899.09;4985920;28;20042;-78
2024/03/09 07:26:21;;;;;;;37.13;21.20;;;;;;;12.07;88.49;99905.16;4996528;28;20513;-76
2024/03/09 07:29:25;;;;;;;39.70;20.85;;;;;;;12.01;88.08;99905.78;4997370;28;20053;-76
2024/03/09 07:32:31;;;;;;;37.08;21.05;;;;;;;12.13;88.29;99898.31;4997356;28;20073;-84
2024/03/09 07:35:36;;;;;;;32.78;18.48;;;;;;;12.35;87.36;99889.75;4997388;28;20061;-81
2024/03/09 07:38:42;;;;;;;32.75;19.38;;;;;;;12.28;87.63;99897.59;4997241;28;20493;-78
2024/03/09 07:41:46;;;;;;;31.65;19.25;;;;;;;12.17;87.54;99911.28;4985084;28;20470;-80
2024/03/09 07:44:51;;;;;;;29.98;18.42;;;;;;;12.27;87.61;99901.28;4997064;28;20058;-81
2024/03/09 07:47:58;;;;;;;31.98;18.83;;;;;;;12.35;87.02;99905.88;4996711;28;20061;-81
2024/03/09 07:51:02;;;;;;;32.33;17.90;;;;;;;12.30;87.35;99909.06;4984927;28;20053;-79
2024/03/09 07:54:07;;;;;;;28.58;17.60;;;;;;;12.37;87.42;99918.19;4995762;28;20054;-78
2024/03/09 07:57:14;;;;;;;34.67;17.23;;;;;;;12.35;87.37;99906.75;4995926;28;20050;-83
2024/03/09 08:00:21;;;;;;;32.08;18.17;;;;;;;12.28;86.62;99905.69;4996824;28;20054;-78
2024/03/09 08:03:28;;;;;;;29.02;17.17;;;;;;;12.07;87.09;99913.22;4996439;28;20466;-78
2024/03/09 08:06:33;;;;;;;30.25;16.73;;;;;;;12.06;87.15;99924.16;4996725;28;20442;-79
2024/03/09 08:09:37;;;;;;;26.85;16.05;;;;;;;12.17;87.39;99930.13;4996615;28;20047;-83
2024/03/09 08:12:43;;;;;;;27.98;16.00;;;;;;;12.21;87.27;99933.38;4998666;28;20516;-81
2024/03/09 08:15:48;;;;;;;26.88;16.77;;;;;;;12.32;87.05;99939.34;5004479;28;20044;-86
2024/03/09 08:18:54;;;;;;;26.75;15.93;;;;;;;12.51;86.44;99940.16;5016071;28;20500;-80
2024/03/09 08:21:59;;;;;;;23.25;16.33;;;;;;;12.69;84.87;99943.66;5016038;28;20049;-78
2024/03/09 08:25:07;;;;;;;27.73;16.52;;;;;;;12.58;85.57;99947.47;5017261;28;20049;-83
2024/03/09 08:28:12;;;;;;;33.10;18.35;;;;;;;12.70;85.25;99962.34;5015837;28;20049;-82
2024/03/09 08:31:16;;;;;;;31.50;19.02;;;;;;;12.99;84.29;99956.63;5015863;28;20049;-85
2024/03/09 08:34:21;;;;;;;24.20;15.77;;;;;;;13.14;83.30;99949.69;5015439;28;20049;-81
2024/03/09 08:37:27;;;;;;;36.17;24.02;;;;;;;13.39;82.38;99964.13;5015708;28;20057;-80
2024/03/09 08:40:31;;;;;;;27.30;18.25;;;;;;;13.33;82.55;99956.69;5015736;28;20049;-84
2024/03/09 08:43:36;;;;;;;24.70;15.60;;;;;;;13.23;82.51;99953.28;5016312;28;20049;-84
2024/03/09 08:46:41;;;;;;;22.98;14.80;;;;;;;13.30;81.66;99948.91;5016389;28;20046;-81
2024/03/09 08:49:45;;;;;;;22.10;14.45;;;;;;;13.39;82.03;99932.63;5015478;28;20045;-80
2024/03/09 08:52:52;;;;;;;23.15;14.32;;;;;;;13.58;81.58;99951.22;5015458;28;20054;-80
2024/03/09 08:55:57;;;;;;;20.45;13.55;;;;;;;13.96;80.24;99946.25;5003275;28;20052;-80
2024/03/09 08:59:02;;;;;;;23.13;14.38;;;;;;;14.14;79.08;99944.25;5015285;28;20061;-80
2024/03/09 09:02:07;;;;;;;19.10;13.25;;;;;;;14.25;78.92;99949.31;5015141;28;20389;-79
2024/03/09 09:05:12;;;;;;;19.30;12.90;;;;;;;14.40;78.68;99949.50;5015185;28;20049;-79
2024/03/09 09:08:24;;;;;;;17.35;12.50;;;;;;;14.67;78.03;99951.88;5015053;28;20389;-78
2024/03/09 09:11:28;;;;;;;20.48;13.35;;;;;;;14.93;76.56;99950.66;5002757;28;20053;-81
2024/03/09 09:14:33;;;;;;;16.98;11.45;;;;;;;15.06;74.60;99955.50;5002653;28;20046;-82
2024/03/09 09:17:38;;;;;;;17.98;11.68;;;;;;;15.04;74.96;99951.28;5014936;28;20465;-79
2024/03/09 09:20:42;;;;;;;16.55;10.68;;;;;;;15.03;74.58;99945.06;5002815;28;20492;-78
2024/03/09 09:23:47;;;;;;;13.93;9.05;;;;;;;15.15;73.42;99940.97;5002784;28;20056;-82
2024/03/09 09:26:51;;;;;;;11.98;8.07;;;;;;;15.02;71.33;99951.47;5014782;28;20081;-78
2024/03/09 09:29:56;;;;;;;10.23;7.50;;;;;;;15.03;70.28;99942.34;5014730;28;20049;-78
2024/03/09 09:33:00;;;;;;;8.52;5.72;;;;;;;14.94;68.30;99940.69;5002332;28;20049;-78
2024/03/09 09:36:05;;;;;;;5.60;4.18;;;;;;;14.58;67.85;99942.09;5014544;28;20053;-78
2024/03/09 09:39:13;;;;;;;6.45;4.18;;;;;;;14.49;67.92;99946.69;5014576;28;20113;-78
2024/03/09 09:42:18;;;;;;;5.30;4.13;;;;;;;14.48;67.45;99947.69;5014508;28;20044;-78
2024/03/09 09:45:26;;;;;;;5.32;3.97;;;;;;;14.16;69.18;99947.63;5002377;28;20411;-79
2024/03/09 09:48:37;;;;;;;5.43;4.05;;;;;;;14.22;69.14;99944.28;5014415;28;20053;-78
2024/03/09 09:51:43;;;;;;;7.68;4.80;;;;;;;13.92;69.36;99945.75;5014271;28;20069;-78
2024/03/09 09:54:48;;;;;;;6.47;4.85;;;;;;;13.80;70.58;99940.84;5014032;28;20041;-79
2024/03/09 09:57:52;;;;;;;7.10;5.18;;;;;;;13.89;70.36;99945.22;5013791;28;20053;-77
2024/03/09 10:00:57;;;;;;;8.30;5.95;;;;;;;13.96;69.94;99948.94;5014179;28;20053;-78
2024/03/09 10:04:04;;;;;;;8.45;6.30;;;;;;;13.92;70.24;99944.91;5014270;28;20057;-78
2024/03/09 10:07:08;;;;;;;9.48;6.82;;;;;;;13.88;71.71;99943.53;5014215;28;20134;-78
2024/03/09 10:10:13;;;;;;;12.75;8.43;;;;;;;13.84;72.85;99942.19;5014082;28;20053;-78
2024/03/09 10:13:18;;;;;;;10.65;7.80;;;;;;;13.87;72.19;99941.84;5013467;28;20433;-77
2024/03/09 10:16:31;;;;;;;11.75;8.10;;;;;;;13.85;71.89;99930.41;5014010;28;20049;-78
2024/03/09 10:19:37;;;;;;;11.70;7.88;;;;;;;14.05;72.26;99926.34;5013748;28;20053;-77
2024/03/09 10:22:42;;;;;;;11.63;7.97;;;;;;;14.01;72.45;99919.59;5013939;28;20060;-77
2024/03/09 10:25:47;;;;;;;10.05;7.13;;;;;;;13.98;72.18;99922.63;5014001;28;20049;-78
2024/03/09 10:28:58;;;;;;;10.38;7.65;;;;;;;13.92;71.93;99926.88;5014452;28;20053;-78
2024/03/09 10:32:07;;;;;;;10.07;7.10;;;;;;;14.01;71.10;99928.56;5013571;28;20389;-78
2024/03/09 10:35:12;;;;;;;10.43;7.00;;;;;;;13.96;71.25;99919.25;5013873;28;20057;-78
2024/03/09 10:38:18;;;;;;;11.32;7.03;;;;;;;13.73;71.81;99913.66;5013710;28;20045;-80
2024/03/09 10:41:28;;;;;;;11.25;6.72;;;;;;;13.75;71.89;99914.34;5013664;28;20049;-77
2024/03/09 10:44:33;;;;;;;8.95;6.40;;;;;;;13.80;72.07;99919.25;5013613;28;20049;-78
2024/03/09 10:47:45;;;;;;;9.52;6.75;;;;;;;13.83;71.72;99910.81;5013374;28;20049;-79
2024/03/09 10:51:41;;;;;;;10.18;7.05;;;;;;;13.69;71.89;99907.78;5001543;28;20049;-79
2024/03/09 10:54:59;;;;;;;9.35;6.97;;;;;;;13.90;71.74;99912.66;4972508;28;20131;-77
2024/03/09 10:58:05;;;;;;;12.43;7.60;;;;;;;13.68;70.92;99905.22;4973842;28;20441;-78
2024/03/09 11:01:10;;;;;;;16.30;7.85;;;;;;;13.75;72.83;99895.47;4964760;28;20093;-79
2024/03/09 11:04:15;;;;;;;12.90;8.35;;;;;;;13.79;72.62;99895.97;4964764;28;20582;-77
2024/03/09 11:07:20;;;;;;;11.27;8.25;;;;;;;13.93;71.48;99884.50;4975669;28;20058;-77
2024/03/09 11:10:26;;;;;;;10.60;7.78;;;;;;;13.81;72.52;99886.69;4975945;28;20143;-80
2024/03/09 11:13:31;;;;;;;11.80;9.07;;;;;;;13.81;72.02;99899.34;4975820;28;20058;-77
2024/03/09 11:16:36;;;;;;;11.25;7.78;;;;;;;13.57;72.87;99903.69;4975489;28;20053;-79
2024/03/09 11:19:43;;;;;;;13.75;8.35;;;;;;;13.87;72.72;99909.47;4975874;28;20139;-81
2024/03/09 11:22:49;;;;;;;10.68;8.30;;;;;;;13.79;73.38;99906.75;4975931;28;20545;-81
2024/03/09 11:25:57;;;;;;;12.38;8.95;;;;;;;13.70;72.76;99906.75;4975701;28;20449;-81
2024/03/09 11:29:01;;;;;;;12.00;7.75;;;;;;;13.88;72.32;99905.75;5014836;28;20485;-81
2024/03/09 11:32:11;;;;;;;12.60;8.80;;;;;;;13.58;72.82;99908.06;5016805;28;20061;-80
2024/03/09 11:35:33;;;;;;;14.48;8.50;;;;;;;13.43;73.18;99898.91;5016825;28;20053;-81
2024/03/09 11:38:39;;;;;;;12.60;8.43;;;;;;;13.74;73.31;99898.31;5016740;28;20441;-81
2024/03/09 11:41:54;;;;;;;13.82;9.52;;;;;;;13.44;73.49;99897.06;5016703;28;20057;-79
2024/03/09 11:45:10;;;;;;;11.75;8.52;;;;;;;13.61;73.09;99894.25;5016663;28;20049;-79
2024/03/09 11:48:14;;;;;;;12.43;8.15;;;;;;;13.89;72.19;99896.66;5016593;28;20053;-78
2024/03/09 11:51:22;;;;;;;11.50;8.18;;;;;;;13.85;71.57;99892.63;5004399;28;20052;-78
2024/03/09 11:54:27;;;;;;;11.90;8.10;;;;;;;13.91;71.73;99894.63;5016389;28;20073;-78
2024/03/09 11:57:37;;;;;;;13.80;8.07;;;;;;;13.87;72.29;99896.00;5017314;28;20053;-80
2024/03/09 12:00:43;;;;;;;11.85;7.63;;;;;;;13.95;72.34;99907.63;5016010;28;20053;-79
2024/03/09 12:03:52;;;;;;;11.13;8.10;;;;;;;13.93;72.10;99898.00;5016025;28;20041;-79
2024/03/09 12:06:59;;;;;;;12.55;7.95;;;;;;;13.92;71.56;99907.13;5015988;28;20053;-78
2024/03/09 12:10:04;;;;;;;10.52;8.00;;;;;;;14.07;70.93;99900.06;5015306;28;20069;-78
2024/03/09 12:13:09;;;;;;;11.43;8.43;;;;;;;14.00;70.23;99893.66;5015276;28;20061;-80
2024/03/09 12:16:14;;;;;;;31.30;14.40;;;;;;;14.13;70.24;99889.44;5015931;28;20053;-81
2024/03/09 12:19:20;;;;;;;27.13;12.23;;;;;;;14.25;70.61;99881.81;5015925;28;20107;-78
2024/03/09 12:22:25;;;;;;;13.25;8.68;;;;;;;14.30;70.42;99879.47;5004180;28;20049;-79
2024/03/09 12:25:31;;;;;;;13.85;8.00;;;;;;;14.20;71.20;99868.00;5015504;28;20057;-75
2024/03/09 12:28:35;;;;;;;12.80;8.30;;;;;;;14.19;71.44;99875.28;5003746;28;20057;-73
2024/03/09 12:31:40;;;;;;;13.52;8.45;;;;;;;14.07;71.34;99868.50;5015216;28;20061;-79
2024/03/09 12:34:44;;;;;;;12.43;8.68;;;;;;;14.07;71.18;99865.78;5003354;28;20397;-76
2024/03/09 12:37:49;;;;;;;11.27;8.32;;;;;;;14.20;70.47;99866.13;5003381;28;20061;-78
2024/03/09 12:40:54;;;;;;;11.30;8.07;;;;;;;14.19;70.49;99864.47;5003318;28;20117;-79
2024/03/09 12:44:03;;;;;;;12.38;7.97;;;;;;;14.23;70.46;99873.06;5015187;28;20500;-79
2024/03/09 12:47:14;;;;;;;12.00;7.82;;;;;;;13.80;71.68;99874.22;5015189;28;20068;-79
2024/03/09 12:50:19;;;;;;;11.77;7.78;;;;;;;13.83;72.01;99871.19;5015046;28;20053;-78
2024/03/09 12:53:23;;;;;;;11.82;8.15;;;;;;;13.95;71.46;99866.31;5015068;28;20057;-77
2024/03/09 12:56:31;;;;;;;13.38;8.05;;;;;;;13.74;71.80;99865.94;5014957;28;20045;-78
2024/03/09 12:59:36;;;;;;;11.68;8.70;;;;;;;13.80;72.44;99859.91;5014850;28;20060;-77
2024/03/09 13:02:41;;;;;;;11.15;7.57;;;;;;;14.10;71.97;99857.38;5014839;28;20500;-79
2024/03/09 13:05:50;;;;;;;11.60;8.45;;;;;;;14.24;71.46;99853.16;5014430;28;20100;-76
2024/03/09 13:08:58;;;;;;;11.52;8.05;;;;;;;14.29;70.71;99854.31;5014502;28;20049;-76
2024/03/09 13:12:03;;;;;;;10.80;8.40;;;;;;;14.35;70.96;99869.03;5014289;28;20049;-76
2024/03/09 13:15:09;;;;;;;12.32;8.13;;;;;;;14.39;70.49;99867.69;5014581;28;20053;-76
2024/03/09 13:18:13;;;;;;;11.73;8.13;;;;;;;14.49;70.72;99867.50;5014533;28;20488;-76
2024/03/09 13:21:21;;;;;;;13.23;8.77;;;;;;;14.42;70.77;99871.91;5013670;28;20053;-76
2024/03/09 13:24:27;;;;;;;11.07;8.13;;;;;;;14.70;69.89;99870.47;5014598;28;20053;-79
2024/03/09 13:27:32;;;;;;;11.93;7.72;;;;;;;15.05;69.39;99871.91;5014577;28;20405;-79
2024/03/09 13:30:41;;;;;;;14.93;9.50;;;;;;;14.48;70.32;99860.41;5002081;28;20057;-79
2024/03/09 13:33:47;;;;;;;11.65;8.63;;;;;;;14.47;70.42;99854.16;5002535;28;20049;-77
2024/03/09 13:36:53;;;;;;;13.55;8.70;;;;;;;14.37;71.07;99858.06;5014352;28;20061;-79
2024/03/09 13:39:57;;;;;;;16.25;10.10;;;;;;;14.43;69.98;99860.06;5014364;28;20049;-78
2024/03/09 13:43:04;;;;;;;14.27;10.00;;;;;;;14.33;71.48;99858.41;5014051;28;20065;-77
2024/03/09 13:46:08;;;;;;;21.52;12.77;;;;;;;14.86;69.94;99859.66;5002068;28;20052;-78
2024/03/09 13:49:14;;;;;;;13.98;9.00;;;;;;;14.77;69.88;99857.97;5014094;28;20045;-77
2024/03/09 13:52:24;;;;;;;11.45;8.52;;;;;;;14.94;69.90;99856.88;5014608;28;20052;-78
2024/03/09 13:55:28;;;;;;;11.93;8.15;;;;;;;14.68;69.96;99857.16;5001662;28;20053;-78
2024/03/09 13:58:35;;;;;;;13.30;9.00;;;;;;;14.70;70.96;99855.13;5001732;28;20397;-78
2024/03/09 14:01:43;;;;;;;12.60;8.60;;;;;;;14.89;70.47;99852.00;5002020;28;20045;-82
2024/03/09 14:04:50;;;;;;;11.80;8.23;;;;;;;14.76;70.76;99857.13;5014075;28;20049;-80
2024/03/09 14:07:56;;;;;;;13.02;9.27;;;;;;;15.02;68.74;99846.06;5013726;28;20053;-77
2024/03/09 14:11:06;;;;;;;11.38;8.75;;;;;;;15.22;69.00;99838.38;5013512;28;20053;-77
2024/03/09 14:14:10;;;;;;;13.05;9.32;;;;;;;14.73;70.81;99838.56;5014065;28;20045;-77
2024/03/09 14:17:16;;;;;;;15.38;10.10;;;;;;;14.94;69.40;99838.81;5001384;28;20397;-77
2024/03/09 14:20:23;;;;;;;13.73;9.60;;;;;;;14.97;68.95;99833.06;5013873;28;20066;-80